createdAt,value
2019-02-20T00:02:01.298Z,2.54
2019-02-20T00:04:32.210Z,2.60
2019-02-20T00:07:02.984Z,2.49
2019-02-20T00:09:33.980Z,2.45
2019-02-20T00:12:05.133Z,2.47
2019-02-20T00:14:36.116Z,2.44
2019-02-20T00:17:07.538Z,2.34
2019-02-20T00:19:38.587Z,2.36
2019-02-20T00:22:09.638Z,2.29
2019-02-20T00:24:40.569Z,2.29
2019-02-20T00:27:11.333Z,2.19
2019-02-20T00:29:42.384Z,2.24
2019-02-20T00:32:13.142Z,2.21
2019-02-20T00:34:44.366Z,2.12
2019-02-20T00:37:15.151Z,2.04
2019-02-20T00:39:46.180Z,1.99
2019-02-20T00:42:17.022Z,1.97
2019-02-20T00:45:06.801Z,1.93
2019-02-20T00:48:08.701Z,1.96
2019-02-20T00:50:39.964Z,1.96
2019-02-20T00:53:15.506Z,1.97
2019-02-20T00:55:46.745Z,1.87
2019-02-20T00:58:17.512Z,1.81
2019-02-20T01:00:48.740Z,1.87
2019-02-20T01:03:19.735Z,1.83
2019-02-20T01:05:50.478Z,1.80
2019-02-20T01:08:21.252Z,1.80
2019-02-20T01:10:52.076Z,1.85
2019-02-20T01:13:22.843Z,1.79
2019-02-20T01:15:54.060Z,1.76
2019-02-20T01:18:24.825Z,1.76
2019-02-20T01:20:55.654Z,1.76
2019-02-20T01:23:26.670Z,1.78
2019-02-20T01:25:57.717Z,1.76
2019-02-20T01:28:28.769Z,1.77
2019-02-20T01:30:59.523Z,1.70
2019-02-20T01:33:30.526Z,1.76
2019-02-20T01:36:01.753Z,1.72
2019-02-20T01:38:33.052Z,1.82
2019-02-20T01:41:03.883Z,1.79
2019-02-20T01:43:34.887Z,1.80
2019-02-20T01:46:05.948Z,1.78
2019-02-20T01:48:37.217Z,1.74
2019-02-20T01:51:08.440Z,1.76
2019-02-20T01:53:39.205Z,1.79
2019-02-20T01:56:10.455Z,1.79
2019-02-20T01:58:41.655Z,1.77
2019-02-20T02:01:12.479Z,1.72
2019-02-20T02:03:43.254Z,1.60
2019-02-20T02:06:14.298Z,1.56
2019-02-20T02:08:45.326Z,1.50
2019-02-20T02:11:16.495Z,1.41
2019-02-20T02:13:47.518Z,1.39
2019-02-20T02:16:18.270Z,1.34
2019-02-20T02:18:49.042Z,1.25
2019-02-20T02:21:19.806Z,1.24
2019-02-20T02:23:50.659Z,1.33
2019-02-20T02:26:21.410Z,1.25
2019-02-20T02:28:52.474Z,1.19
2019-02-20T02:31:23.532Z,1.22
2019-02-20T02:33:54.300Z,1.12
2019-02-20T02:36:25.325Z,1.09
2019-02-20T02:38:56.327Z,1.11
2019-02-20T02:41:27.537Z,1.17
2019-02-20T02:43:58.785Z,1.18
2019-02-20T02:46:29.627Z,1.12
2019-02-20T02:49:00.388Z,1.05
2019-02-20T02:51:31.207Z,1.02
2019-02-20T02:54:02.311Z,0.96
2019-02-20T02:56:33.073Z,0.98
2019-02-20T02:59:03.918Z,0.93
2019-02-20T03:01:34.734Z,0.94
2019-02-20T03:04:06.062Z,0.99
2019-02-20T03:06:37.065Z,0.97
2019-02-20T03:09:08.755Z,1.01
2019-02-20T03:11:40.973Z,0.94
2019-02-20T03:14:12.110Z,1.01
2019-02-20T03:16:43.247Z,1.05
2019-02-20T03:19:15.520Z,1.05
2019-02-20T03:21:46.560Z,1.04
2019-02-20T03:24:17.760Z,1.03
2019-02-20T03:26:49.120Z,1.00
2019-02-20T03:29:20.194Z,1.02
2019-02-20T03:31:51.212Z,1.07
2019-02-20T03:34:22.780Z,1.10
2019-02-20T03:36:54.159Z,1.16
2019-02-20T03:39:26.786Z,1.11
2019-02-20T03:41:57.959Z,1.07
2019-02-20T03:44:29.000Z,1.10
2019-02-20T03:47:00.619Z,0.96
2019-02-20T03:49:31.610Z,1.00
2019-02-20T03:52:02.878Z,0.93
2019-02-20T03:54:33.946Z,1.01
2019-02-20T03:57:05.012Z,0.96
2019-02-20T03:59:36.153Z,1.14
2019-02-20T04:02:07.408Z,1.06
2019-02-20T04:04:38.189Z,1.09
2019-02-20T04:07:09.320Z,1.03
2019-02-20T04:09:40.080Z,0.96
2019-02-20T04:12:10.857Z,0.99
2019-02-20T04:14:41.628Z,1.00
2019-02-20T04:17:12.391Z,1.02
2019-02-20T04:19:43.175Z,0.85
2019-02-20T04:22:13.945Z,0.81
2019-02-20T04:24:45.362Z,0.80
2019-02-20T04:27:16.891Z,0.81
2019-02-20T04:29:48.216Z,0.72
2019-02-20T04:32:19.900Z,0.76
2019-02-20T04:34:50.688Z,0.73
2019-02-20T04:37:21.775Z,0.72
2019-02-20T04:39:52.570Z,0.76
2019-02-20T04:42:23.780Z,0.73
2019-02-20T04:44:54.560Z,0.77
2019-02-20T04:47:25.415Z,0.85
2019-02-20T04:49:56.580Z,1.01
2019-02-20T04:52:27.433Z,1.12
2019-02-20T04:54:59.093Z,1.02
2019-02-20T04:57:29.953Z,1.07
2019-02-20T05:00:00.881Z,1.03
2019-02-20T05:02:32.409Z,1.10
2019-02-20T05:05:03.657Z,1.01
2019-02-20T05:07:34.460Z,0.95
2019-02-20T05:10:05.987Z,0.92
2019-02-20T05:12:37.272Z,0.93
2019-02-20T05:15:08.349Z,0.99
2019-02-20T05:17:39.118Z,0.93
2019-02-20T05:20:09.994Z,0.93
2019-02-20T05:22:40.771Z,0.83
2019-02-20T05:25:12.600Z,0.88
2019-02-20T05:27:43.485Z,0.84
2019-02-20T05:30:14.576Z,0.79
2019-02-20T05:32:45.341Z,0.73
2019-02-20T05:35:16.171Z,0.66
2019-02-20T05:37:46.940Z,0.65
2019-02-20T05:40:17.719Z,0.70
2019-02-20T05:42:48.929Z,0.94
2019-02-20T05:45:19.801Z,0.98
2019-02-20T05:47:50.828Z,0.97
2019-02-20T05:50:22.238Z,1.03
2019-02-20T05:52:53.260Z,1.07
2019-02-20T05:55:24.072Z,1.10
2019-02-20T05:57:55.067Z,1.12
2019-02-20T06:00:25.844Z,2.14
2019-02-20T06:02:56.846Z,1.70
2019-02-20T06:05:27.863Z,1.39
2019-02-20T06:07:58.625Z,1.34
2019-02-20T06:10:29.930Z,1.29
2019-02-20T06:13:00.962Z,1.28
2019-02-20T06:15:32.004Z,1.24
2019-02-20T06:18:03.031Z,1.22
2019-02-20T06:20:33.927Z,1.18
2019-02-20T06:23:04.656Z,1.19
2019-02-20T06:25:35.446Z,1.25
2019-02-20T06:28:06.209Z,1.23
2019-02-20T06:30:37.062Z,1.26
2019-02-20T06:33:07.831Z,1.25
2019-02-20T06:35:38.912Z,1.32
2019-02-20T06:38:11.361Z,1.31
2019-02-20T06:40:42.380Z,1.40
2019-02-20T06:43:13.392Z,1.51
2019-02-20T06:45:44.169Z,1.70
2019-02-20T06:48:15.152Z,1.85
2019-02-20T06:50:46.356Z,1.96
2019-02-20T06:53:17.215Z,2.03
2019-02-20T06:55:48.565Z,2.07
2019-02-20T06:58:19.381Z,2.17
2019-02-20T07:00:50.411Z,2.28
2019-02-20T07:03:21.509Z,2.31
2019-02-20T07:06:21.828Z,2.39
2019-02-20T07:09:29.789Z,2.44
2019-02-20T07:12:36.059Z,2.46
2019-02-20T07:15:46.627Z,2.68
2019-02-20T07:18:43.415Z,2.77
2019-02-20T07:21:42.787Z,2.93
2019-02-20T07:24:47.401Z,2.97
2019-02-20T07:27:46.312Z,3.07
2019-02-20T07:30:17.494Z,3.11
2019-02-20T07:32:48.551Z,3.21
2019-02-20T07:35:19.405Z,3.32
2019-02-20T07:37:50.167Z,3.36
2019-02-20T07:40:21.085Z,3.28
2019-02-20T07:42:52.057Z,3.37
2019-02-20T07:45:22.827Z,3.20
2019-02-20T07:47:53.890Z,3.29
2019-02-20T07:50:25.002Z,3.34
2019-02-20T07:52:55.841Z,3.45
2019-02-20T07:55:26.906Z,3.52
2019-02-20T07:57:57.916Z,3.54
2019-02-20T08:00:28.689Z,3.71
2019-02-20T08:02:59.700Z,3.97
2019-02-20T08:05:30.553Z,4.15
2019-02-20T08:08:01.316Z,4.29
2019-02-20T08:10:32.185Z,4.42
2019-02-20T08:13:02.947Z,4.43
2019-02-20T08:15:33.755Z,4.43
2019-02-20T08:18:04.592Z,4.36
2019-02-20T08:20:35.625Z,4.30
2019-02-20T08:23:06.716Z,4.33
2019-02-20T08:25:37.500Z,4.32
2019-02-20T08:28:08.340Z,4.32
2019-02-20T08:30:39.123Z,4.41
2019-02-20T08:33:09.880Z,4.53
2019-02-20T08:35:40.724Z,4.54
2019-02-20T08:38:12.039Z,4.59
2019-02-20T08:40:43.097Z,4.70
2019-02-20T08:43:14.159Z,4.76
2019-02-20T08:45:45.151Z,4.90
2019-02-20T08:48:15.989Z,4.92
2019-02-20T08:50:46.772Z,5.06
2019-02-20T08:53:18.296Z,5.04
2019-02-20T08:55:50.268Z,5.17
2019-02-20T08:58:21.027Z,5.38
2019-02-20T09:00:52.119Z,5.48
2019-02-20T09:03:22.875Z,5.62
2019-02-20T09:05:54.856Z,5.69
2019-02-20T09:08:25.669Z,5.87
2019-02-20T09:10:56.436Z,5.99
2019-02-20T09:13:28.166Z,6.19
2019-02-20T09:15:59.422Z,6.37
2019-02-20T09:18:30.432Z,6.37
2019-02-20T09:21:01.208Z,6.56
2019-02-20T09:23:32.081Z,6.63
2019-02-20T09:26:03.060Z,6.62
2019-02-20T09:28:34.428Z,6.68
2019-02-20T09:31:05.223Z,6.75
2019-02-20T09:33:35.985Z,6.83
2019-02-20T09:36:06.765Z,6.83
2019-02-20T09:38:37.618Z,6.79
2019-02-20T09:41:08.711Z,6.96
2019-02-20T09:43:39.770Z,7.07
2019-02-20T09:46:10.907Z,7.19
2019-02-20T09:48:41.962Z,7.36
2019-02-20T09:51:12.798Z,7.47
2019-02-20T09:53:44.047Z,7.42
2019-02-20T09:56:16.155Z,7.59
2019-02-20T09:58:47.030Z,7.59
2019-02-20T10:01:18.772Z,7.62
2019-02-20T10:03:49.611Z,7.77
2019-02-20T10:06:20.876Z,7.83
2019-02-20T10:08:52.115Z,7.90
2019-02-20T10:11:23.120Z,7.88
2019-02-20T10:13:53.879Z,7.94
2019-02-20T10:16:25.015Z,8.01
2019-02-20T10:18:55.723Z,8.05
2019-02-20T10:21:26.799Z,8.11
2019-02-20T10:23:57.559Z,8.23
2019-02-20T10:26:28.485Z,8.33
2019-02-20T10:28:59.470Z,8.47
2019-02-20T10:31:30.244Z,8.49
2019-02-20T10:34:00.998Z,8.75
2019-02-20T10:36:31.778Z,8.80
2019-02-20T10:39:02.821Z,8.78
2019-02-20T10:41:35.669Z,9.01
2019-02-20T10:44:06.434Z,9.10
2019-02-20T10:46:38.172Z,9.27
2019-02-20T10:49:08.936Z,9.23
2019-02-20T10:51:40.021Z,9.31
2019-02-20T10:54:10.780Z,9.48
2019-02-20T10:56:41.636Z,9.52
2019-02-20T10:59:12.481Z,9.51
2019-02-20T11:01:43.250Z,9.41
2019-02-20T11:04:14.086Z,9.60
2019-02-20T11:06:45.148Z,9.66
2019-02-20T11:09:16.046Z,9.63
2019-02-20T11:11:47.177Z,9.84
2019-02-20T11:14:17.939Z,9.85
2019-02-20T11:16:48.951Z,9.82
2019-02-20T11:19:19.945Z,9.87
2019-02-20T11:21:50.972Z,9.84
2019-02-20T11:24:22.227Z,9.99
2019-02-20T11:26:55.118Z,10.04
2019-02-20T11:29:25.573Z,10.22
2019-02-20T11:31:56.650Z,10.36
2019-02-20T11:34:27.907Z,10.49
2019-02-20T11:36:58.984Z,10.54
2019-02-20T11:39:37.466Z,10.73
2019-02-20T11:42:02.722Z,11.08
2019-02-20T11:44:33.496Z,11.23
2019-02-20T11:47:04.352Z,11.25
2019-02-20T11:49:35.117Z,11.35
2019-02-20T11:52:05.928Z,11.37
2019-02-20T11:54:36.933Z,11.45
2019-02-20T11:57:07.944Z,11.50
2019-02-20T11:59:38.744Z,11.48
2019-02-20T12:02:09.613Z,11.40
2019-02-20T12:04:40.622Z,11.35
2019-02-20T12:07:11.992Z,11.46
2019-02-20T12:09:42.836Z,11.45
2019-02-20T12:12:13.943Z,11.38
2019-02-20T12:14:44.715Z,11.19
2019-02-20T12:17:15.588Z,11.26
2019-02-20T12:19:46.429Z,11.39
2019-02-20T12:22:17.943Z,11.25
2019-02-20T12:24:48.944Z,11.31
2019-02-20T12:27:20.342Z,11.32
2019-02-20T12:29:51.349Z,11.43
2019-02-20T12:32:22.212Z,11.40
2019-02-20T12:34:53.397Z,11.41
2019-02-20T12:37:25.098Z,11.41
2019-02-20T12:39:55.903Z,11.38
2019-02-20T12:42:26.695Z,11.47
2019-02-20T12:44:58.641Z,11.52
2019-02-20T12:47:29.424Z,11.59
2019-02-20T12:50:00.417Z,11.62
2019-02-20T12:52:31.954Z,11.61
2019-02-20T12:55:02.962Z,11.55
2019-02-20T12:57:33.827Z,11.48
2019-02-20T13:00:04.919Z,11.62
2019-02-20T13:02:37.256Z,11.46
2019-02-20T13:05:08.455Z,11.66
2019-02-20T13:07:39.629Z,11.94
2019-02-20T13:10:10.733Z,11.69
2019-02-20T13:12:41.723Z,11.76
2019-02-20T13:15:12.743Z,11.84
2019-02-20T13:17:43.744Z,11.62
2019-02-20T13:20:14.842Z,11.63
2019-02-20T13:22:45.905Z,11.75
2019-02-20T13:25:16.944Z,11.73
2019-02-20T13:27:47.944Z,11.47
2019-02-20T13:30:19.036Z,11.58
2019-02-20T13:32:51.058Z,11.44
2019-02-20T13:35:22.538Z,11.54
2019-02-20T13:37:53.391Z,11.50
2019-02-20T13:40:24.635Z,11.58
2019-02-20T13:42:55.638Z,11.71
2019-02-20T13:45:26.759Z,11.64
2019-02-20T13:47:57.533Z,11.64
2019-02-20T13:50:28.645Z,11.66
2019-02-20T13:52:59.509Z,11.47
2019-02-20T13:55:34.468Z,11.25
2019-02-20T13:58:02.833Z,11.43
2019-02-20T14:00:33.932Z,11.40
2019-02-20T14:03:05.262Z,11.35
2019-02-20T14:05:36.263Z,11.45
2019-02-20T14:08:07.146Z,11.49
2019-02-20T14:10:37.944Z,11.60
2019-02-20T14:13:08.787Z,11.81
2019-02-20T14:15:39.908Z,11.80
2019-02-20T14:18:10.919Z,11.87
2019-02-20T14:20:42.036Z,11.99
2019-02-20T14:23:13.062Z,12.16
2019-02-20T14:25:44.443Z,12.11
2019-02-20T14:28:15.237Z,12.27
2019-02-20T14:30:46.890Z,12.46
2019-02-20T14:33:18.154Z,12.19
2019-02-20T14:35:49.289Z,12.41
2019-02-20T14:38:21.112Z,12.58
2019-02-20T14:40:52.245Z,12.64
2019-02-20T14:43:23.282Z,12.37
2019-02-20T14:45:54.420Z,12.54
2019-02-20T14:48:26.493Z,12.47
2019-02-20T14:50:57.271Z,12.55
2019-02-20T14:53:28.118Z,12.68
2019-02-20T14:55:59.132Z,12.51
2019-02-20T14:58:30.102Z,12.80
2019-02-20T15:01:01.116Z,12.65
2019-02-20T15:03:33.258Z,12.34
2019-02-20T15:06:04.040Z,12.36
2019-02-20T15:08:35.133Z,12.11
2019-02-20T15:11:06.493Z,11.91
2019-02-20T15:13:37.359Z,11.70
2019-02-20T15:16:08.138Z,11.64
2019-02-20T15:18:39.500Z,11.63
2019-02-20T15:21:10.654Z,11.55
2019-02-20T15:23:41.518Z,11.56
2019-02-20T15:26:12.575Z,11.68
2019-02-20T15:28:43.359Z,11.66
2019-02-20T15:31:14.513Z,11.63
2019-02-20T15:33:45.373Z,11.75
2019-02-20T15:36:16.220Z,11.61
2019-02-20T15:38:48.457Z,11.53
2019-02-20T15:41:19.526Z,11.62
2019-02-20T15:43:51.552Z,11.39
2019-02-20T15:46:23.556Z,11.47
2019-02-20T15:48:54.388Z,11.27
2019-02-20T15:51:25.501Z,11.19
2019-02-20T15:53:56.282Z,11.06
2019-02-20T15:56:27.304Z,11.16
2019-02-20T15:58:58.627Z,11.22
2019-02-20T16:01:29.882Z,11.07
2019-02-20T16:04:00.662Z,11.01
2019-02-20T16:06:31.494Z,10.85
2019-02-20T16:09:02.279Z,10.72
2019-02-20T16:11:34.661Z,10.85
2019-02-20T16:14:05.738Z,10.65
2019-02-20T16:16:36.728Z,10.63
2019-02-20T16:19:07.818Z,10.65
2019-02-20T16:21:38.574Z,10.44
2019-02-20T16:24:09.586Z,10.34
2019-02-20T16:26:40.819Z,10.24
2019-02-20T16:29:13.630Z,10.12
2019-02-20T16:31:44.730Z,10.01
2019-02-20T16:34:15.631Z,9.90
2019-02-20T16:36:46.717Z,9.74
2019-02-20T16:39:17.487Z,9.62
2019-02-20T16:41:48.249Z,9.46
2019-02-20T16:44:19.098Z,9.35
2019-02-20T16:46:50.279Z,9.19
2019-02-20T16:49:21.278Z,9.08
2019-02-20T16:51:52.202Z,8.94
2019-02-20T16:54:23.196Z,8.82
2019-02-20T16:56:54.023Z,8.66
2019-02-20T16:59:25.672Z,8.64
2019-02-20T17:01:56.738Z,8.46
2019-02-20T17:04:27.775Z,8.34
2019-02-20T17:06:58.776Z,8.34
2019-02-20T17:09:30.598Z,8.23
2019-02-20T17:12:01.525Z,8.18
2019-02-20T17:14:32.323Z,8.16
2019-02-20T17:17:03.164Z,8.09
2019-02-20T17:19:34.124Z,8.05
2019-02-20T17:22:04.887Z,7.99
2019-02-20T17:24:35.722Z,7.92
2019-02-20T17:27:07.280Z,7.84
2019-02-20T17:29:38.413Z,7.74
2019-02-20T17:32:09.163Z,7.66
2019-02-20T17:34:39.934Z,7.55
2019-02-20T17:37:10.920Z,7.44
2019-02-20T17:39:42.238Z,7.33
2019-02-20T17:42:13.026Z,7.27
2019-02-20T17:44:43.865Z,7.21
2019-02-20T17:47:14.869Z,7.15
2019-02-20T17:49:45.720Z,7.04
2019-02-20T17:52:16.754Z,6.94
2019-02-20T17:54:47.768Z,6.85
2019-02-20T17:57:18.822Z,6.71
2019-02-20T17:59:49.955Z,6.63
2019-02-20T18:02:20.718Z,6.57
2019-02-20T18:04:51.750Z,6.55
2019-02-20T18:07:22.815Z,6.46
2019-02-20T18:09:53.594Z,6.38
2019-02-20T18:12:24.596Z,6.33
2019-02-20T18:14:55.457Z,6.23
2019-02-20T18:17:26.220Z,6.20
2019-02-20T18:19:57.244Z,6.20
2019-02-20T18:22:28.002Z,6.15
2019-02-20T18:24:59.045Z,6.11
2019-02-20T18:27:29.884Z,6.06
2019-02-20T18:30:01.415Z,6.13
2019-02-20T18:32:32.600Z,6.05
2019-02-20T18:35:03.627Z,6.00
2019-02-20T18:37:35.587Z,6.03
2019-02-20T18:40:06.930Z,5.95
2019-02-20T18:42:38.220Z,5.91
2019-02-20T18:45:10.044Z,5.86
2019-02-20T18:47:40.873Z,5.83
2019-02-20T18:50:12.031Z,5.82
2019-02-20T18:52:43.517Z,5.79
2019-02-20T18:55:14.439Z,5.77
2019-02-20T18:57:45.467Z,5.76
2019-02-20T19:00:17.873Z,5.76
2019-02-20T19:02:49.181Z,5.79
2019-02-20T19:05:20.380Z,5.71
2019-02-20T19:07:51.459Z,5.63
2019-02-20T19:10:26.881Z,5.59
2019-02-20T19:13:39.070Z,5.52
2019-02-20T19:16:53.103Z,5.52
2019-02-20T19:19:38.901Z,5.53
2019-02-20T19:22:26.642Z,5.55
2019-02-20T19:25:59.726Z,5.57
2019-02-20T19:29:08.103Z,5.56
2019-02-20T19:32:06.538Z,5.56
2019-02-20T19:35:00.911Z,5.59
2019-02-20T19:38:10.919Z,5.56
2019-02-20T19:41:23.014Z,5.55
2019-02-20T19:44:16.362Z,5.62
2019-02-20T19:47:11.755Z,5.49
2019-02-20T19:50:23.977Z,5.53
2019-02-20T19:53:25.395Z,5.45
2019-02-20T19:56:32.711Z,5.28
2019-02-20T19:59:20.940Z,5.21
2019-02-20T20:02:28.279Z,5.16
2019-02-20T20:05:16.874Z,5.15
2019-02-20T20:08:08.421Z,5.07
2019-02-20T20:11:14.169Z,4.94
2019-02-20T20:14:13.392Z,4.85
2019-02-20T20:17:30.556Z,4.76
2019-02-20T20:20:31.918Z,4.70
2019-02-20T20:23:40.114Z,4.70
2019-02-20T20:26:43.370Z,4.56
2019-02-20T20:29:37.670Z,4.46
2019-02-20T20:32:36.719Z,4.44
2019-02-20T20:35:32.283Z,4.38
2019-02-20T20:38:43.808Z,4.30
2019-02-20T20:41:42.257Z,4.28
2019-02-20T20:44:50.131Z,4.25
2019-02-20T20:47:50.885Z,4.25
2019-02-20T20:50:51.445Z,4.27
2019-02-20T20:54:03.718Z,4.23
2019-02-20T20:56:57.007Z,4.16
2019-02-20T20:59:28.544Z,4.15
2019-02-20T21:02:28.259Z,4.09
2019-02-20T21:05:34.862Z,4.11
2019-02-20T21:08:20.182Z,4.10
2019-02-20T21:11:48.001Z,4.04
2019-02-20T21:14:36.888Z,4.05
2019-02-20T21:18:03.338Z,4.08
2019-02-20T21:21:04.173Z,4.04
2019-02-20T21:23:51.865Z,3.95
2019-02-20T21:26:58.511Z,3.96
2019-02-20T21:30:16.657Z,3.94
2019-02-20T21:33:24.799Z,3.88
2019-02-20T21:36:29.151Z,3.83
2019-02-20T21:39:18.508Z,3.75
2019-02-20T21:42:17.956Z,3.77
2019-02-20T21:45:10.715Z,3.71
2019-02-20T21:47:53.771Z,3.64
2019-02-20T21:50:40.332Z,3.58
2019-02-20T21:53:55.480Z,3.59
2019-02-20T21:56:38.246Z,3.61
2019-02-20T21:59:40.181Z,3.62
2019-02-20T22:02:52.423Z,3.62
2019-02-20T22:06:10.733Z,3.58
2019-02-20T22:09:12.462Z,3.58
2019-02-20T22:12:27.267Z,3.60
2019-02-20T22:15:06.297Z,3.57
2019-02-20T22:18:02.452Z,3.57
2019-02-20T22:21:21.412Z,3.56
2019-02-20T22:24:04.272Z,3.52
2019-02-20T22:27:31.519Z,3.50
2019-02-20T22:30:31.297Z,3.46
2019-02-20T22:33:27.463Z,3.42
2019-02-20T22:36:12.675Z,3.37
2019-02-20T22:39:17.355Z,3.37
2019-02-20T22:42:25.364Z,3.46
2019-02-20T22:45:43.813Z,3.56
2019-02-20T22:48:53.280Z,3.47
2019-02-20T22:52:01.332Z,3.35
2019-02-20T22:55:10.108Z,3.28
2019-02-20T22:58:21.181Z,3.30
2019-02-20T23:01:35.261Z,3.21
2019-02-20T23:04:46.543Z,3.40
2019-02-20T23:08:03.688Z,3.38
2019-02-20T23:11:25.569Z,3.22
2019-02-20T23:14:31.546Z,3.13
2019-02-20T23:17:02.299Z,3.02
2019-02-20T23:19:33.324Z,3.08
2019-02-20T23:22:04.388Z,3.17
2019-02-20T23:24:35.394Z,3.38
2019-02-20T23:27:06.223Z,3.44
2019-02-20T23:29:37.001Z,3.48
2019-02-20T23:32:08.227Z,3.41
2019-02-20T23:34:39.090Z,3.40
2019-02-20T23:37:10.153Z,3.35
2019-02-20T23:39:40.939Z,3.31
2019-02-20T23:42:12.256Z,3.33
2019-02-20T23:44:43.540Z,3.46
2019-02-20T23:47:14.274Z,3.45
2019-02-20T23:49:45.286Z,3.53
2019-02-20T23:52:16.050Z,3.57
2019-02-20T23:54:47.026Z,3.60
2019-02-20T23:57:18.150Z,3.59
2019-02-20T23:59:48.939Z,3.54
